Aviation Digital Data Service (ADDS)

Output produced by METARs form (1103 UTC 30 April 2017)
found at http://www.aviationweather.gov/adds/metars/
 
MNBL 292155Z 3000/3024 10008KT 9999 BKN017 
     BECMG 3015/3018 08006KT 6000 VCRA SCT016TCU SCT060 
     FM302100 06004KT 9999 BKN018
       
MNMG 301000Z 17004KT 9999 FEW020 SCT300 25/22 Q1010 A2984
MNMG 300906Z 3012/0112 08014KT 9999 SCT024 
     BECMG 3018/3023 FEW024 SCT300 
     BECMG 0102/0108 12010KT
       
MNPC 292155Z 3000/3024 09008KT 7000 HZ SCT016 
     BECMG 3013/3016 06008KT 6000 VCRA BKN017TCU 
     TEMPO3018/3021 07006KT 8000 HZ SCT018